Time;durP1;ratioP1;P1;durP2;ratioP2;P2;SDS_P1;SDS_P2;PMS_P1;PMS_P2;Temp;Humidity;BMP_temperature;BMP_pressure;BME280_temperature;BME280_humidity;BME280_pressure;Samples;Min_cycle;Max_cycle;Signal;HPM_P1;HPM_P2
2022/07/23 00:00:33;;;;;;;3.17;1.67;;;;;;;26.19;41.35;99040.41;6248866;23;20149;-91
2022/07/23 00:02:58;;;;;;;2.87;1.23;;;;;;;26.08;41.15;99038.09;6222080;23;20185;-92
2022/07/23 00:05:24;;;;;;;3.20;1.20;;;;;;;26.00;41.27;99036.34;6221928;23;20573;-91
2022/07/23 00:07:49;;;;;;;3.93;1.23;;;;;;;25.94;41.23;99034.34;6221738;23;20164;-91
2022/07/23 00:10:15;;;;;;;1.27;0.70;;;;;;;25.94;41.11;99039.72;6221748;23;20164;-91
2022/07/23 00:12:41;;;;;;;4.20;1.53;;;;;;;25.88;40.91;99040.47;6247895;23;20149;-91
2022/07/23 00:15:08;;;;;;;4.03;1.20;;;;;;;25.88;40.91;99040.47;6247916;23;20149;-91
2022/07/23 00:17:34;;;;;;;3.33;1.40;;;;;;;25.86;40.54;99044.34;6222544;23;20474;-92
2022/07/23 00:19:59;;;;;;;2.03;1.03;;;;;;;25.88;40.95;99045.00;6221521;23;20153;-92
2022/07/23 00:22:25;;;;;;;4.40;1.60;;;;;;;25.99;40.84;99039.22;6221421;23;20181;-91
2022/07/23 00:24:51;;;;;;;3.60;1.17;;;;;;;26.00;40.61;99035.50;6221688;23;20153;-91
2022/07/23 00:27:17;;;;;;;2.00;0.83;;;;;;;26.10;40.02;99034.22;6221586;23;20240;-92
2022/07/23 00:29:42;;;;;;;1.50;0.90;;;;;;;26.07;40.12;99037.25;6221289;23;20581;-91
2022/07/23 00:32:08;;;;;;;3.23;0.90;;;;;;;25.96;41.01;99037.72;6221095;23;20227;-92
2022/07/23 00:34:33;;;;;;;2.57;1.10;;;;;;;26.02;41.40;99042.34;6248193;23;20203;-92
2022/07/23 00:36:59;;;;;;;3.07;1.70;;;;;;;26.03;40.64;99030.59;6221440;23;20215;-92
2022/07/23 00:39:24;;;;;;;2.93;1.30;;;;;;;25.81;41.22;99031.47;6248629;23;20149;-91
2022/07/23 00:41:52;;;;;;;3.43;1.00;;;;;;;25.79;41.70;99032.63;6248042;23;20239;-91
2022/07/23 00:44:25;;;;;;;3.83;1.23;;;;;;;25.72;41.76;99032.53;6221214;23;20195;-92
2022/07/23 00:46:53;;;;;;;1.90;1.03;;;;;;;25.71;41.94;99028.16;6248030;23;20137;-91
2022/07/23 00:49:27;;;;;;;2.30;1.00;;;;;;;25.73;41.95;99028.84;6221303;23;20456;-91
2022/07/23 00:51:57;;;;;;;4.47;1.60;;;;;;;25.80;41.34;99031.63;6248127;23;20197;-92
2022/07/23 00:54:26;;;;;;;8.57;2.03;;;;;;;25.78;41.11;99030.97;6221097;23;20157;-91
2022/07/23 00:56:53;;;;;;;2.50;1.30;;;;;;;25.63;41.57;99028.22;6247975;23;20156;-91
2022/07/23 00:59:19;;;;;;;4.30;1.10;;;;;;;25.64;41.63;99032.59;6247559;23;20156;-91
2022/07/23 01:01:47;;;;;;;4.03;1.43;;;;;;;25.52;42.03;99034.03;6247816;23;20173;-91
2022/07/23 01:04:14;;;;;;;4.73;1.40;;;;;;;25.48;41.98;99036.22;6220905;23;20157;-91
2022/07/23 01:06:40;;;;;;;3.93;1.73;;;;;;;25.38;42.29;99042.78;6247565;23;20219;-91
2022/07/23 01:09:07;;;;;;;2.83;1.40;;;;;;;25.32;42.37;99038.97;6221134;23;20157;-91
2022/07/23 01:11:37;;;;;;;3.80;1.63;;;;;;;25.33;42.21;99039.81;6247543;23;20145;-91
2022/07/23 01:14:11;;;;;;;3.07;1.70;;;;;;;25.22;43.06;99038.34;6220939;23;20164;-91
2022/07/23 01:16:37;;;;;;;4.37;1.37;;;;;;;25.19;43.11;99043.22;6221118;23;20176;-90
2022/07/23 01:19:06;;;;;;;3.00;1.43;;;;;;;25.20;42.79;99052.94;6221181;23;20581;-92
2022/07/23 01:21:35;;;;;;;3.80;1.47;;;;;;;25.15;43.08;99052.66;6247611;23;20270;-91
2022/07/23 01:24:01;;;;;;;1.93;1.00;;;;;;;25.16;43.28;99048.97;6220820;23;20159;-91
2022/07/23 01:26:26;;;;;;;6.83;1.43;;;;;;;25.08;43.72;99051.69;6248003;23;20149;-91
2022/07/23 01:28:52;;;;;;;5.60;1.73;;;;;;;24.94;44.10;99051.41;6220872;23;20461;-91
2022/07/23 01:31:18;;;;;;;4.03;1.70;;;;;;;24.92;44.00;99039.19;6220957;23;20224;-91
2022/07/23 01:33:44;;;;;;;2.30;1.07;;;;;;;24.81;44.73;99051.13;6221124;23;20160;-91
2022/07/23 01:36:13;;;;;;;3.70;1.50;;;;;;;24.77;44.51;99056.94;6247476;23;20553;-91
2022/07/23 01:38:38;;;;;;;2.63;1.30;;;;;;;24.76;44.10;99049.94;6220800;23;20149;-91
2022/07/23 01:41:04;;;;;;;4.40;1.53;;;;;;;24.79;44.31;99047.75;6220684;23;20160;-91
2022/07/23 01:43:29;;;;;;;2.43;1.23;;;;;;;24.81;43.98;99040.38;6220866;23;20600;-91
2022/07/23 01:45:55;;;;;;;2.37;1.20;;;;;;;24.83;43.90;99057.13;6220571;23;20153;-91
2022/07/23 01:48:21;;;;;;;3.13;1.20;;;;;;;24.75;44.26;99049.09;6247046;23;20459;-91
2022/07/23 01:50:47;;;;;;;3.70;1.30;;;;;;;24.69;44.03;99051.59;6247141;23;20157;-91
2022/07/23 01:53:14;;;;;;;3.40;1.57;;;;;;;24.66;44.65;99058.13;6247327;23;20156;-91
2022/07/23 01:55:39;;;;;;;7.10;1.73;;;;;;;24.72;44.15;99052.09;6247126;23;20146;-91
2022/07/23 01:58:05;;;;;;;1.90;1.17;;;;;;;24.51;44.94;99051.81;6221179;23;20222;-91
2022/07/23 02:00:31;;;;;;;3.40;1.50;;;;;;;24.30;45.44;99048.84;6220509;23;20234;-91
2022/07/23 02:02:58;;;;;;;3.53;1.17;;;;;;;24.40;45.12;99054.84;6246899;23;20495;-91
2022/07/23 02:05:25;;;;;;;2.20;1.10;;;;;;;24.37;45.08;99055.22;6221302;23;20149;-91
2022/07/23 02:07:51;;;;;;;2.80;1.10;;;;;;;24.21;45.99;99047.19;6220586;23;20156;-92
2022/07/23 02:10:16;;;;;;;5.63;1.57;;;;;;;24.17;46.06;99049.34;6220971;23;20218;-91
2022/07/23 02:12:42;;;;;;;2.83;1.57;;;;;;;24.09;46.68;99051.19;6221189;23;20245;-91
2022/07/23 02:15:08;;;;;;;4.03;1.77;;;;;;;24.04;46.41;99058.88;6220440;23;20180;-91
2022/07/23 02:17:33;;;;;;;4.50;0.90;;;;;;;24.00;46.20;99054.88;6221146;23;20218;-90
2022/07/23 02:19:58;;;;;;;4.17;2.27;;;;;;;23.89;46.86;99060.53;6246824;23;20233;-90
2022/07/23 02:22:24;;;;;;;3.37;1.43;;;;;;;23.89;46.98;99053.34;6220103;23;20177;-90
2022/07/23 02:24:49;;;;;;;2.97;1.43;;;;;;;23.80;46.75;99055.19;6220069;23;20588;-89
2022/07/23 02:27:15;;;;;;;5.83;1.30;;;;;;;23.83;46.59;99059.38;6246539;23;20149;-90
2022/07/23 02:29:40;;;;;;;4.00;1.10;;;;;;;23.77;46.37;99055.50;6246589;23;20220;-90
2022/07/23 02:32:06;;;;;;;7.97;1.50;;;;;;;23.87;45.83;99059.88;6220055;23;20584;-90
2022/07/23 02:34:31;;;;;;;4.07;1.83;;;;;;;23.96;45.15;99048.16;6246835;23;20152;-90
2022/07/23 02:36:57;;;;;;;5.50;1.30;;;;;;;23.83;45.49;99052.19;6246390;23;20214;-90
2022/07/23 02:39:22;;;;;;;3.07;1.13;;;;;;;23.75;45.53;99059.34;6219946;23;20163;-90
2022/07/23 02:41:48;;;;;;;2.80;1.13;;;;;;;23.78;45.95;99057.19;6246198;23;20592;-90
2022/07/23 02:44:13;;;;;;;7.07;1.30;;;;;;;23.64;46.74;99055.16;6246296;23;20244;-90
2022/07/23 02:46:38;;;;;;;6.20;1.40;;;;;;;23.58;46.04;99061.19;6219910;23;20149;-90
2022/07/23 02:49:04;;;;;;;3.53;1.40;;;;;;;23.55;45.83;99061.50;6246280;23;20148;-91
2022/07/23 02:51:30;;;;;;;3.33;1.30;;;;;;;23.60;45.69;99063.69;6219962;23;20149;-91
2022/07/23 02:53:56;;;;;;;3.03;1.10;;;;;;;23.54;46.48;99062.50;6219921;23;20167;-90
2022/07/23 02:56:21;;;;;;;2.40;1.10;;;;;;;23.54;46.28;99069.69;6219554;23;20152;-90
2022/07/23 02:58:46;;;;;;;4.17;1.23;;;;;;;23.47;46.29;99074.88;6219785;23;20162;-90
2022/07/23 03:01:12;;;;;;;2.10;1.10;;;;;;;23.47;46.13;99072.19;6246926;23;20149;-90
2022/07/23 03:03:37;;;;;;;3.63;1.20;;;;;;;23.48;45.93;99076.53;6245851;23;20149;-90
2022/07/23 03:06:03;;;;;;;4.30;1.30;;;;;;;23.54;46.13;99080.41;6246220;23;20157;-90
2022/07/23 03:08:29;;;;;;;4.17;1.30;;;;;;;23.39;46.41;99077.53;6246977;23;20247;-91
2022/07/23 03:10:54;;;;;;;3.50;1.40;;;;;;;23.43;46.60;99075.34;6219895;23;20172;-90
2022/07/23 03:13:20;;;;;;;2.00;1.00;;;;;;;23.36;46.87;99080.50;6219885;23;20564;-90
2022/07/23 03:15:45;;;;;;;2.10;1.10;;;;;;;23.28;46.88;99083.13;6245827;23;20160;-90
2022/07/23 03:18:11;;;;;;;4.60;1.37;;;;;;;23.36;46.92;99085.84;6219856;23;20164;-90
2022/07/23 03:20:36;;;;;;;2.47;1.03;;;;;;;23.37;47.25;99074.19;6246738;23;20207;-91
2022/07/23 03:23:02;;;;;;;3.73;1.40;;;;;;;23.35;47.10;99086.81;6219547;23;20187;-90
2022/07/23 03:25:27;;;;;;;4.50;1.40;;;;;;;23.40;47.21;99087.22;6219862;23;20163;-90
2022/07/23 03:27:53;;;;;;;2.13;1.07;;;;;;;23.46;46.63;99086.56;6245960;23;20148;-91
2022/07/23 03:30:18;;;;;;;1.87;1.10;;;;;;;23.36;46.98;99082.31;6246504;23;20184;-90
2022/07/23 03:32:44;;;;;;;5.40;1.70;;;;;;;23.31;47.87;99082.81;6219675;23;20479;-91
2022/07/23 03:35:10;;;;;;;2.83;1.33;;;;;;;23.22;48.31;99078.44;6219131;23;20487;-91
2022/07/23 03:37:36;;;;;;;3.93;1.87;;;;;;;23.23;48.05;99080.97;6246054;23;20535;-91
2022/07/23 03:40:01;;;;;;;5.63;1.43;;;;;;;23.25;48.40;99083.47;6246412;23;20149;-90
2022/07/23 03:42:27;;;;;;;3.90;2.00;;;;;;;23.18;48.48;99079.75;6245820;23;20476;-91
2022/07/23 03:44:52;;;;;;;2.73;1.40;;;;;;;23.29;48.06;99082.16;6246275;23;20145;-91
2022/07/23 03:47:21;;;;;;;2.60;1.67;;;;;;;23.38;47.95;99073.16;6219614;23;20153;-90
2022/07/23 03:49:50;;;;;;;6.00;1.13;;;;;;;23.43;47.91;99076.19;6246024;23;20149;-91
2022/07/23 03:52:15;;;;;;;6.90;1.87;;;;;;;23.44;48.55;99077.88;6219698;23;20162;-91
2022/07/23 03:54:41;;;;;;;2.57;1.40;;;;;;;23.46;48.97;99083.88;6245894;23;20149;-90
2022/07/23 03:57:06;;;;;;;2.73;1.30;;;;;;;23.37;49.44;99086.72;6219623;23;20161;-90
2022/07/23 03:59:32;;;;;;;4.57;1.60;;;;;;;23.36;49.50;99083.16;6246394;23;20588;-91
2022/07/23 04:01:57;;;;;;;4.23;1.70;;;;;;;23.33;49.65;99083.47;6245972;23;20203;-91
2022/07/23 04:04:23;;;;;;;5.30;2.47;;;;;;;23.37;49.37;99084.03;6219554;23;20161;-90
2022/07/23 04:06:48;;;;;;;3.23;1.07;;;;;;;23.44;50.14;99090.41;6218870;23;20240;-91
2022/07/23 04:09:14;;;;;;;7.40;1.97;;;;;;;23.52;49.40;99095.78;6245909;23;20227;-91
2022/07/23 04:11:39;;;;;;;3.37;1.67;;;;;;;23.62;49.18;99097.31;6246305;23;20141;-91
2022/07/23 04:14:05;;;;;;;5.77;1.63;;;;;;;23.70;48.96;99091.97;6245596;23;20535;-91
2022/07/23 04:16:31;;;;;;;5.03;1.63;;;;;;;23.79;48.95;99092.84;6219025;23;20496;-91
2022/07/23 04:18:57;;;;;;;6.00;1.53;;;;;;;23.79;49.23;99088.28;6219386;23;20157;-91
2022/07/23 04:21:23;;;;;;;3.13;1.60;;;;;;;23.83;48.83;99089.66;6219804;23;20153;-91
2022/07/23 04:23:49;;;;;;;5.03;1.60;;;;;;;23.78;48.45;99100.03;6219555;23;20217;-91
2022/07/23 04:26:14;;;;;;;3.97;1.33;;;;;;;23.70;47.48;99096.50;6218637;23;20228;-91
2022/07/23 04:28:40;;;;;;;3.57;1.60;;;;;;;23.62;47.32;99099.16;6219788;23;20483;-91
2022/07/23 04:31:05;;;;;;;3.03;1.30;;;;;;;23.69;48.33;99089.44;6245231;23;20218;-91
2022/07/23 04:33:31;;;;;;;5.60;1.30;;;;;;;23.81;48.51;99093.50;6218801;23;20149;-91
2022/07/23 04:35:58;;;;;;;3.10;1.37;;;;;;;23.88;48.85;99104.38;6245084;23;20594;-91
2022/07/23 04:38:24;;;;;;;3.73;1.30;;;;;;;23.91;48.77;99098.69;6217141;23;20153;-91
2022/07/23 04:40:49;;;;;;;11.17;1.80;;;;;;;23.99;49.29;99096.88;6246625;23;20456;-90
2022/07/23 04:43:15;;;;;;;6.70;2.23;;;;;;;24.14;48.58;99105.94;6246983;23;20181;-91
2022/07/23 04:45:43;;;;;;;3.50;1.30;;;;;;;24.22;49.11;99108.63;6246474;23;20149;-91
2022/07/23 04:48:08;;;;;;;8.90;1.60;;;;;;;24.37;48.12;99108.81;6218841;23;20572;-91
2022/07/23 04:50:34;;;;;;;8.57;1.80;;;;;;;24.51;47.69;99100.06;6220626;23;20152;-91
2022/07/23 04:52:59;;;;;;;8.07;1.93;;;;;;;24.66;48.67;99100.22;6221911;23;20157;-91
2022/07/23 04:55:25;;;;;;;8.30;2.40;;;;;;;24.73;49.02;99102.03;6247672;23;20159;-91
2022/07/23 04:57:50;;;;;;;4.87;2.20;;;;;;;24.89;48.20;99099.34;6247634;23;20572;-92
2022/07/23 05:00:16;;;;;;;4.63;1.97;;;;;;;25.12;47.34;99107.47;6247954;23;20153;-92
2022/07/23 05:02:41;;;;;;;6.43;1.87;;;;;;;25.24;47.37;99108.75;6220941;23;20188;-91
2022/07/23 05:05:07;;;;;;;5.50;2.20;;;;;;;25.28;48.34;99096.69;6221089;23;20152;-92
2022/07/23 05:07:33;;;;;;;7.83;2.03;;;;;;;25.33;47.84;99098.84;6221156;23;20160;-91
2022/07/23 05:09:58;;;;;;;4.97;2.30;;;;;;;25.46;47.64;99102.66;6220972;23;20161;-92
2022/07/23 05:12:24;;;;;;;6.43;2.80;;;;;;;25.55;47.33;99098.91;6221042;23;20170;-91
2022/07/23 05:14:49;;;;;;;5.03;2.70;;;;;;;25.68;47.15;99102.88;6247713;23;20145;-91
2022/07/23 05:17:17;;;;;;;5.53;2.10;;;;;;;25.75;47.06;99099.31;6247805;23;20490;-90
2022/07/23 05:19:42;;;;;;;7.50;3.07;;;;;;;25.74;46.94;99107.53;6247700;23;20156;-91
2022/07/23 05:22:08;;;;;;;8.00;2.03;;;;;;;25.91;46.27;99099.22;6221282;23;20177;-91
2022/07/23 05:24:33;;;;;;;7.63;3.03;;;;;;;26.09;46.47;99102.41;6221790;23;20549;-91
2022/07/23 05:26:59;;;;;;;7.57;2.93;;;;;;;26.19;46.38;99102.19;6247753;23;20565;-91
2022/07/23 05:29:24;;;;;;;6.60;2.83;;;;;;;26.34;44.71;99107.59;6247871;23;20156;-93
2022/07/23 05:31:50;;;;;;;8.90;2.63;;;;;;;26.48;43.43;99112.19;6248450;23;20145;-92
2022/07/23 05:34:15;;;;;;;7.47;3.43;;;;;;;26.61;42.88;99107.03;6221066;23;20564;-91
2022/07/23 05:36:41;;;;;;;4.33;2.30;;;;;;;26.94;42.49;99112.94;6220905;23;20191;-92
2022/07/23 05:39:06;;;;;;;5.97;2.53;;;;;;;27.06;42.48;99117.69;6220845;23;20176;-92
2022/07/23 05:41:52;;;;;;;4.18;2.25;;;;;;;27.37;42.15;99110.22;6221011;23;20188;-92
2022/07/23 05:44:28;;;;;;;7.53;3.25;;;;;;;27.58;41.52;99108.63;6247607;23;20167;-93
2022/07/23 05:46:53;;;;;;;4.10;2.50;;;;;;;27.52;41.17;99112.06;6221073;23;20581;-92
2022/07/23 05:49:19;;;;;;;6.23;2.50;;;;;;;27.66;41.48;99111.22;6247291;23;20149;-92
2022/07/23 05:51:45;;;;;;;5.20;2.53;;;;;;;27.73;40.83;99117.50;6220865;23;20176;-91
2022/07/23 05:54:15;;;;;;;4.45;2.30;;;;;;;27.90;41.49;99105.47;6220724;23;20164;-92
2022/07/23 05:56:43;;;;;;;6.28;2.60;;;;;;;28.14;41.54;99105.13;6220712;23;20148;-92
2022/07/23 05:59:18;;;;;;;5.72;2.80;;;;;;;28.28;41.16;99109.59;6221199;23;20153;-92
2022/07/23 06:01:43;;;;;;;4.53;2.45;;;;;;;28.41;39.73;99109.72;6220542;23;20172;-92
2022/07/23 06:04:09;;;;;;;6.53;2.50;;;;;;;28.43;40.12;99107.66;6247473;23;20480;-91
2022/07/23 06:06:34;;;;;;;8.27;2.53;;;;;;;28.60;39.81;99109.03;6220641;23;20153;-92
2022/07/23 06:09:13;;;;;;;4.70;2.60;;;;;;;28.64;40.14;99114.94;6220664;23;20497;-92
2022/07/23 06:11:48;;;;;;;4.78;2.50;;;;;;;28.78;39.69;99107.75;6220161;23;20159;-93
2022/07/23 06:14:22;;;;;;;8.65;3.38;;;;;;;28.96;39.26;99108.06;6247296;23;20208;-94
2022/07/23 06:16:48;;;;;;;6.57;2.72;;;;;;;29.07;38.46;99111.03;6221463;23;20148;-91
2022/07/23 06:19:13;;;;;;;4.28;2.55;;;;;;;29.18;38.54;99109.66;6246828;23;20149;-92
2022/07/23 06:21:49;;;;;;;7.55;2.80;;;;;;;29.27;37.83;99110.34;6246803;23;20176;-92
2022/07/23 06:24:30;;;;;;;;;;;;;;;;;;;;;
2022/07/23 06:27:02;;;;;;;6.57;2.60;;;;;;;29.39;37.68;99097.94;6247615;23;20224;-93
2022/07/23 06:30:01;;;;;;;4.78;2.60;;;;;;;29.86;37.69;99099.78;6221854;23;20281;-92
2022/07/23 06:32:32;;;;;;;8.00;2.22;;;;;;;30.16;36.38;99095.69;6163222;23;20506;-93
2022/07/23 06:35:00;;;;;;;9.05;3.08;;;;;;;30.63;36.61;99098.22;6220437;23;20570;-92
2022/07/23 06:37:37;;;;;;;9.98;2.90;;;;;;;30.95;36.35;99091.94;6247626;23;20153;-91
2022/07/23 06:40:13;;;;;;;4.88;2.50;;;;;;;31.13;35.35;99090.44;6221859;23;20149;-93
2022/07/23 06:42:39;;;;;;;5.93;2.70;;;;;;;31.35;34.51;99081.81;6246509;23;20188;-92
2022/07/23 06:48:06;;;;;;;;;;;;;;;;;;;;;
2022/07/23 06:51:24;;;;;;;5.43;2.13;;;;;;;32.10;32.69;99080.22;6247524;23;20205;-93
2022/07/23 06:54:03;;;;;;;3.90;2.20;;;;;;;32.20;32.56;99081.38;6128498;23;20586;-93
2022/07/23 06:56:39;;;;;;;4.32;2.00;;;;;;;32.55;31.78;99081.72;6129414;23;20241;-92
2022/07/23 06:59:35;;;;;;;;;;;;;;;;;;;;;
2022/07/23 07:02:51;;;;;;;4.00;1.90;;;;;;;32.85;30.51;99094.59;6154322;23;20261;-92
2022/07/23 07:06:02;;;;;;;9.38;2.05;;;;;;;33.16;30.65;99092.63;6125031;23;20186;-92
2022/07/23 07:08:33;;;;;;;3.20;1.60;;;;;;;33.32;29.77;99099.31;6151977;23;20219;-93
2022/07/23 07:11:29;;;;;;;;;;;;;;;;;;;;;
2022/07/23 07:22:12;;;;;;;;;;;;;;;;;;;;;
2022/07/23 07:35:04;;;;;;;4.35;1.95;;;;;;;35.53;27.69;99074.19;5973482;23;20159;-93
2022/07/23 07:37:34;;;;;;;4.15;2.05;;;;;;;35.69;27.94;99067.94;6014583;23;20185;-93
2022/07/23 07:40:32;;;;;;;;;;;;;;;;;;;;;
2022/07/23 07:53:30;;;;;;;;;;;;;;;;;;;;;
2022/07/23 07:56:31;;;;;;;6.53;2.20;;;;;;;37.03;26.62;99049.69;6023036;23;20235;-94
2022/07/23 08:00:46;;;;;;;;;;;;;;;;;;;;;
2022/07/23 08:03:14;;;;;;;4.63;1.77;;;;;;;37.50;26.65;99048.13;5991645;23;20225;-95
2022/07/23 08:05:49;;;;;;;7.03;1.80;;;;;;;37.61;25.38;99040.88;6021615;23;20162;-92
2022/07/23 08:13:01;;;;;;;;;;;;;;;;;;;;;
2022/07/23 08:23:43;;;;;;;;;;;;;;;;;;;;;
2022/07/23 08:54:45;;;;;;;2.95;1.67;;;;;;;39.88;22.55;99014.94;5668472;25;20187;-95
2022/07/23 08:58:07;;;;;;;;;;;;;;;;;;;;;
2022/07/23 09:01:40;;;;;;;;;;;;;;;;;;;;;
2022/07/23 09:05:01;;;;;;;;;;;;;;;;;;;;;
2022/07/23 09:12:14;;;;;;;4.80;2.00;;;;;;;40.04;22.53;98997.38;5899909;24;20177;-95
2022/07/23 09:25:56;;;;;;;4.22;1.92;;;;;;;40.39;23.39;98982.78;5899157;24;20284;-95
2022/07/23 09:32:07;;;;;;;4.78;2.25;;;;;;;40.93;21.21;98971.97;5900374;24;20164;-94
2022/07/23 09:43:04;;;;;;;;;;;;;;;;;;;;;
2022/07/23 09:49:26;;;;;;;5.25;2.33;;;;;;;41.51;18.67;98967.56;5791874;24;20636;-94
2022/07/23 09:52:39;;;;;;;4.57;1.52;;;;;;;41.60;19.91;98966.66;5770577;24;20224;-94
2022/07/23 10:09:13;;;;;;;;;;;;;;;;;;;;;
2022/07/23 10:26:47;;;;;;;;;;;;;;;;;;;;;
2022/07/23 10:33:55;;;;;;;4.43;1.65;;;;;;;41.97;18.65;98915.72;6160122;23;20165;-92
2022/07/23 10:37:06;;;;;;;6.97;1.75;;;;;;;42.20;19.01;98914.97;6047674;23;20564;-92
2022/07/23 10:40:31;;;;;;;6.38;1.85;;;;;;;42.48;17.97;98911.34;6167280;23;20243;-94
2022/07/23 10:43:50;;;;;;;4.00;1.75;;;;;;;42.35;18.24;98901.03;6086353;23;20208;-92
2022/07/23 10:47:41;;;;;;;6.57;1.48;;;;;;;42.64;18.50;98896.28;6190771;23;20243;-92
2022/07/23 10:50:32;;;;;;;7.63;1.88;;;;;;;42.67;18.46;98892.97;6193496;23;20219;-91
2022/07/23 10:53:22;;;;;;;1.58;1.00;;;;;;;42.97;18.38;98888.19;6043664;23;20735;-94
2022/07/23 10:56:26;;;;;;;3.65;1.48;;;;;;;43.14;18.06;98891.22;6108282;23;20209;-93
2022/07/23 10:59:26;;;;;;;;;;;;;;;;;;;;;
2022/07/23 11:12:15;;;;;;;2.33;1.23;;;;;;;43.77;17.15;98862.09;6067833;23;20240;-92
2022/07/23 11:21:58;;;;;;;;;;;;;;;;;;;;;
2022/07/23 11:25:22;;;;;;;;;;;;;;;;;;;;;
2022/07/23 11:28:25;;;;;;;;;;;;;;;;;;;;;
2022/07/23 11:31:44;;;;;;;;;;;;;;;;;;;;;
2022/07/23 11:38:14;;;;;;;3.67;1.63;;;;;;;44.19;16.21;98854.72;6066928;23;20156;-92
2022/07/23 11:41:01;;;;;;;3.75;1.67;;;;;;;44.33;16.20;98852.78;6092514;23;20578;-93
2022/07/23 11:44:15;;;;;;;;;;;;;;;;;;;;;
2022/07/23 11:46:58;;;;;;;4.80;1.95;;;;;;;44.50;16.71;98853.03;6118330;23;20237;-91
2022/07/23 11:49:29;;;;;;;3.15;1.58;;;;;;;44.57;16.00;98858.94;6101991;23;20248;-93
2022/07/23 11:52:24;;;;;;;3.83;1.60;;;;;;;44.44;16.42;98845.91;6102539;23;20163;-91
2022/07/23 11:54:52;;;;;;;2.88;1.25;;;;;;;44.08;16.27;98844.97;6161275;23;20162;-93
2022/07/23 11:57:31;;;;;;;4.38;1.90;;;;;;;44.28;15.37;98850.94;6162598;23;20154;-94
2022/07/23 12:00:16;;;;;;;6.32;1.60;;;;;;;44.25;16.67;98842.44;6162499;23;20141;-92
2022/07/23 12:06:19;;;;;;;5.68;1.58;;;;;;;43.92;17.12;98848.00;6167069;23;20667;-91
2022/07/23 12:11:57;;;;;;;4.72;1.77;;;;;;;44.53;15.89;98828.31;6166941;23;20149;-93
2022/07/23 12:21:17;;;;;;;3.80;1.60;;;;;;;44.55;16.62;98822.50;6162287;23;20583;-92
2022/07/23 12:27:38;;;;;;;5.93;1.48;;;;;;;44.41;16.47;98824.41;6213502;23;20176;-94
2022/07/23 12:30:30;;;;;;;4.47;1.73;;;;;;;44.69;16.04;98812.19;6044722;23;20603;-92
2022/07/23 12:33:06;;;;;;;4.47;1.60;;;;;;;45.00;16.94;98801.28;6044355;23;20604;-91
2022/07/23 12:36:18;;;;;;;;;;;;;;;;;;;;;
2022/07/23 12:38:53;;;;;;;2.85;1.67;;;;;;;45.50;16.05;98793.69;6217196;23;20232;-92
2022/07/23 12:45:09;;;;;;;6.07;2.03;;;;;;;44.86;15.93;98786.66;6015312;23;20188;-92
2022/07/23 12:48:03;;;;;;;3.25;1.83;;;;;;;44.50;16.51;98792.19;6045449;23;20175;-92
2022/07/23 12:50:41;;;;;;;2.25;1.23;;;;;;;44.76;16.29;98790.50;6218221;23;20137;-91
2022/07/23 12:53:40;;;;;;;3.47;1.65;;;;;;;45.13;15.85;98789.31;6191531;23;20153;-92
2022/07/23 12:56:19;;;;;;;;;;;;;;;;;;;;;
2022/07/23 12:58:54;;;;;;;5.25;1.80;;;;;;;45.30;16.30;98783.13;6217990;23;20596;-91
2022/07/23 13:01:57;;;;;;;4.60;2.30;;;;;;;45.49;16.43;98781.81;6217129;23;20133;-92
2022/07/23 13:04:26;;;;;;;5.07;1.85;;;;;;;45.75;15.59;98776.44;6184749;23;20171;-91
2022/07/23 13:07:47;;;;;;;2.08;1.17;;;;;;;45.80;15.34;98770.75;6190749;23;20276;-91
2022/07/23 13:10:16;;;;;;;3.63;1.55;;;;;;;45.45;15.84;98779.97;6147413;23;20149;-90
2022/07/23 13:12:44;;;;;;;3.50;1.65;;;;;;;45.58;15.24;98768.81;6191377;23;20206;-93
2022/07/23 13:15:30;;;;;;;3.65;2.00;;;;;;;45.43;15.55;98769.22;6217539;23;20141;-92
2022/07/23 13:18:16;;;;;;;;;;;;;;;;;;;;;
2022/07/23 13:20:55;;;;;;;3.85;1.70;;;;;;;44.90;16.47;98758.06;6217789;23;20228;-91
2022/07/23 13:23:23;;;;;;;6.45;1.90;;;;;;;44.54;16.39;98760.84;6190810;23;20256;-91
2022/07/23 13:25:49;;;;;;;2.65;1.45;;;;;;;44.46;16.47;98763.47;6190652;23;20172;-91
2022/07/23 13:28:16;;;;;;;4.45;1.83;;;;;;;44.15;16.09;98760.56;6217638;23;20145;-91
2022/07/23 13:30:44;;;;;;;3.10;1.38;;;;;;;44.68;15.55;98752.50;6190802;23;20149;-91
2022/07/23 13:33:20;;;;;;;5.57;1.58;;;;;;;44.00;16.44;98756.13;6191157;23;20153;-93
2022/07/23 13:35:45;;;;;;;2.92;1.60;;;;;;;43.61;16.56;98758.53;6217159;23;20563;-91
2022/07/23 13:38:11;;;;;;;3.53;1.75;;;;;;;43.57;17.65;98756.69;6217284;23;20149;-91
2022/07/23 13:40:42;;;;;;;3.60;1.80;;;;;;;44.01;16.03;98749.47;6216864;23;20149;-90
2022/07/23 13:43:09;;;;;;;7.43;2.13;;;;;;;43.88;16.80;98753.06;6217260;23;20542;-90
2022/07/23 13:45:35;;;;;;;3.22;1.92;;;;;;;44.52;16.45;98737.38;6191752;23;20589;-91
2022/07/23 13:48:03;;;;;;;8.57;2.05;;;;;;;44.30;15.81;98749.19;6190630;23;20153;-93
2022/07/23 13:50:32;;;;;;;5.70;2.10;;;;;;;44.54;16.32;98746.19;6191137;23;20168;-92
2022/07/23 13:53:09;;;;;;;4.72;2.22;;;;;;;44.93;16.02;98740.84;6191040;23;20245;-92
2022/07/23 13:56:04;;;;;;;5.03;1.50;;;;;;;45.21;15.84;98740.72;6190603;23;20145;-93
2022/07/23 13:58:42;;;;;;;2.72;1.60;;;;;;;45.25;15.24;98739.81;6190550;23;20232;-93
2022/07/23 14:01:10;;;;;;;3.40;1.63;;;;;;;45.04;15.72;98736.72;6189548;23;20570;-91
2022/07/23 14:06:32;;;;;;;6.95;2.08;;;;;;;45.38;15.36;98735.31;6204838;23;20583;-91
2022/07/23 14:08:58;;;;;;;3.72;1.90;;;;;;;45.32;15.04;98725.50;6190746;23;20241;-93
2022/07/23 14:14:35;;;;;;;4.30;1.58;;;;;;;45.03;15.51;98720.41;6140827;23;20153;-92
2022/07/23 14:17:01;;;;;;;2.05;1.20;;;;;;;44.91;15.76;98732.06;6190854;23;20157;-93
2022/07/23 14:19:26;;;;;;;3.70;1.83;;;;;;;45.08;15.48;98732.16;6190373;23;20492;-92
2022/07/23 14:21:52;;;;;;;2.55;1.60;;;;;;;45.26;15.53;98732.31;6216584;23;20144;-93
2022/07/23 14:24:58;;;;;;;3.33;1.75;;;;;;;45.34;15.59;98729.56;6216745;23;20239;-91
2022/07/23 14:27:24;;;;;;;2.83;1.40;;;;;;;45.39;15.69;98725.88;6214846;23;20167;-92
2022/07/23 14:30:10;;;;;;;3.47;1.50;;;;;;;45.65;15.55;98719.34;6190636;23;20156;-91
2022/07/23 14:32:46;;;;;;;3.03;1.50;;;;;;;45.32;16.17;98725.50;6217285;23;20149;-91
2022/07/23 14:35:21;;;;;;;;;;;;;;;;;;;;;
2022/07/23 14:38:04;;;;;;;7.45;2.28;;;;;;;45.05;15.94;98724.50;6217098;23;20220;-91
2022/07/23 14:40:30;;;;;;;2.65;1.27;;;;;;;45.12;15.45;98724.88;6190120;23;20145;-89
2022/07/23 14:43:40;;;;;;;;;;;;;;;;;;;;;
2022/07/23 14:46:12;;;;;;;3.47;1.88;;;;;;;44.68;16.35;98713.78;6216948;23;20208;-93
2022/07/23 14:48:46;;;;;;;6.00;1.90;;;;;;;44.64;16.24;98715.53;6190759;23;20595;-93
2022/07/23 14:52:26;;;;;;;;;;;;;;;;;;;;;
2022/07/23 14:54:52;;;;;;;5.18;1.90;;;;;;;44.80;15.08;98702.97;6096379;23;20223;-91
2022/07/23 14:57:18;;;;;;;4.05;1.27;;;;;;;44.57;15.80;98712.38;6190183;23;20168;-91
2022/07/23 14:59:46;;;;;;;4.93;1.80;;;;;;;44.95;16.37;98691.53;6189955;23;20157;-89
2022/07/23 15:02:17;;;;;;;3.28;1.63;;;;;;;44.13;16.29;98698.44;6215991;23;20238;-95
2022/07/23 15:04:43;;;;;;;4.75;1.80;;;;;;;44.19;16.78;98697.19;6189938;23;20179;-91
2022/07/23 15:07:09;;;;;;;2.90;1.70;;;;;;;44.08;16.77;98701.28;6190205;23;20585;-91
2022/07/23 15:09:34;;;;;;;3.58;1.65;;;;;;;43.81;16.95;98700.19;6216357;23;20151;-89
2022/07/23 15:12:00;;;;;;;4.03;2.00;;;;;;;43.61;16.87;98694.22;6216567;23;20145;-89
2022/07/23 15:14:26;;;;;;;4.07;1.90;;;;;;;44.01;16.96;98691.47;6215901;23;20584;-90
2022/07/23 15:16:51;;;;;;;6.80;1.70;;;;;;;44.26;16.78;98689.31;6216776;23;20152;-90
2022/07/23 15:19:23;;;;;;;2.60;1.55;;;;;;;44.18;16.24;98685.34;6215974;23;20149;-91
2022/07/23 15:21:48;;;;;;;4.93;2.22;;;;;;;44.11;16.78;98684.91;6215735;23;20137;-90
2022/07/23 15:24:13;;;;;;;7.53;1.98;;;;;;;44.28;17.16;98690.63;6215593;23;20274;-90
2022/07/23 15:26:39;;;;;;;7.82;2.25;;;;;;;44.19;16.98;98689.72;6215969;23;20149;-92
2022/07/23 15:29:05;;;;;;;2.63;1.63;;;;;;;43.79;16.86;98693.34;6215868;23;20161;-90
2022/07/23 15:31:31;;;;;;;3.03;1.60;;;;;;;43.59;16.59;98686.22;6216272;23;20157;-91
2022/07/23 15:33:57;;;;;;;5.65;1.95;;;;;;;43.48;17.29;98692.28;6215867;23;20142;-91
2022/07/23 15:36:23;;;;;;;4.85;2.15;;;;;;;43.38;16.82;98693.25;6190014;23;20477;-91
2022/07/23 15:38:48;;;;;;;5.57;2.00;;;;;;;43.03;17.19;98702.16;6216140;23;20150;-90
2022/07/23 15:41:14;;;;;;;4.30;1.90;;;;;;;42.89;17.72;98704.03;6216286;23;20169;-91
2022/07/23 15:43:40;;;;;;;4.68;1.85;;;;;;;42.77;17.91;98691.50;6189352;23;20180;-90
2022/07/23 15:46:07;;;;;;;3.42;2.00;;;;;;;42.26;18.08;98687.88;6186052;23;20170;-89